Time;durP1;ratioP1;P1;durP2;ratioP2;P2;SDS_P1;SDS_P2;PMS_P1;PMS_P2;Temp;Humidity;BMP_temperature;BMP_pressure;BME280_temperature;BME280_humidity;BME280_pressure;Samples;Min_cycle;Max_cycle;Signal;HPM_P1;HPM_P2
2023/03/15 00:02:46;;;;;;;9.70;1.10;;;3.80;99.90;;;;;;5072922;28;20071;-89
2023/03/15 00:05:32;;;;;;;5.57;1.05;;;3.70;99.90;;;;;;5077298;28;20044;-91
2023/03/15 00:08:20;;;;;;;12.77;1.23;;;3.70;99.90;;;;;;5077037;28;20141;-89
2023/03/15 00:11:07;;;;;;;8.32;1.75;;;3.70;99.90;;;;;;5072557;28;20135;-89
2023/03/15 00:13:53;;;;;;;7.47;1.20;;;3.70;99.90;;;;;;5059889;28;20051;-87
2023/03/15 00:16:41;;;;;;;15.75;2.78;;;3.70;99.90;;;;;;5077769;28;20116;-90
2023/03/15 00:19:27;;;;;;;12.35;1.70;;;3.70;99.90;;;;;;5071084;28;20402;-89
2023/03/15 00:22:13;;;;;;;13.10;2.15;;;3.80;99.90;;;;;;5080455;28;20052;-90
2023/03/15 00:24:59;;;;;;;16.33;2.20;;;3.80;99.90;;;;;;5076612;28;20041;-90
2023/03/15 00:27:45;;;;;;;10.40;2.05;;;3.90;99.90;;;;;;5078684;28;20468;-88
2023/03/15 00:30:32;;;;;;;17.38;2.90;;;3.90;99.90;;;;;;5046763;28;20049;-87
2023/03/15 00:33:18;;;;;;;14.52;2.22;;;3.90;99.90;;;;;;5074966;28;20047;-90
2023/03/15 00:36:06;;;;;;;9.75;1.70;;;3.80;99.90;;;;;;5052951;28;20476;-89
2023/03/15 00:38:54;;;;;;;12.98;2.30;;;3.80;99.90;;;;;;5053693;28;20048;-91
2023/03/15 00:41:40;;;;;;;13.00;2.53;;;3.70;99.90;;;;;;5078948;28;20040;-89
2023/03/15 00:44:26;;;;;;;12.63;2.30;;;3.80;99.90;;;;;;5074619;28;20451;-90
2023/03/15 00:47:13;;;;;;;15.45;2.80;;;3.80;99.90;;;;;;5062794;28;20044;-88
2023/03/15 00:49:59;;;;;;;15.32;3.03;;;3.70;99.90;;;;;;5043905;28;20063;-90
2023/03/15 00:52:46;;;;;;;12.35;2.08;;;3.70;99.90;;;;;;5053567;28;20048;-89
2023/03/15 00:55:32;;;;;;;12.77;2.53;;;3.70;99.90;;;;;;5072213;28;20052;-89
2023/03/15 00:58:18;;;;;;;12.38;2.05;;;3.80;99.90;;;;;;5053368;28;20056;-88
2023/03/15 01:01:11;;;;;;;16.13;2.47;;;3.80;99.90;;;;;;5074500;28;20053;-90
2023/03/15 01:03:57;;;;;;;6.13;1.48;;;3.80;99.90;;;;;;5075683;28;20048;-88
2023/03/15 01:06:43;;;;;;;11.05;1.73;;;3.90;99.90;;;;;;5073347;28;20142;-90
2023/03/15 01:09:30;;;;;;;13.35;2.00;;;3.90;99.90;;;;;;5082421;28;20056;-91
2023/03/15 01:12:16;;;;;;;9.95;1.58;;;3.90;99.90;;;;;;5079318;28;20104;-90
2023/03/15 01:15:05;;;;;;;12.95;1.58;;;3.90;99.90;;;;;;5060049;28;20079;-88
2023/03/15 01:17:51;;;;;;;6.03;1.38;;;3.90;99.90;;;;;;5057595;28;20049;-90
2023/03/15 01:20:40;;;;;;;9.50;1.45;;;3.90;99.90;;;;;;5074788;28;20041;-89
2023/03/15 01:23:26;;;;;;;7.20;2.17;;;4.00;99.90;;;;;;5059793;28;20106;-89
2023/03/15 01:26:14;;;;;;;6.82;1.23;;;4.00;99.90;;;;;;5044950;28;20048;-92
2023/03/15 01:29:00;;;;;;;8.48;1.52;;;4.00;99.90;;;;;;5072169;28;20146;-88
2023/03/15 01:31:46;;;;;;;8.30;1.20;;;4.00;99.90;;;;;;5071379;28;20055;-88
2023/03/15 01:34:33;;;;;;;11.23;1.20;;;4.00;99.90;;;;;;5059518;28;20049;-88
2023/03/15 01:37:23;;;;;;;10.00;1.42;;;4.00;99.90;;;;;;5065030;28;20145;-88
2023/03/15 01:40:12;;;;;;;11.18;1.60;;;4.00;99.90;;;;;;5083837;28;20044;-88
2023/03/15 01:43:04;;;;;;;12.13;1.92;;;4.10;99.90;;;;;;5057517;28;20113;-88
2023/03/15 01:46:14;;;;;;;14.27;1.95;;;4.00;99.90;;;;;;5071293;28;20178;-91
2023/03/15 01:49:15;;;;;;;10.52;2.50;;;3.90;99.90;;;;;;5087252;28;20059;-90
2023/03/15 01:52:06;;;;;;;8.38;3.50;;;3.90;99.90;;;;;;5072236;28;20106;-89
2023/03/15 01:55:04;;;;;;;10.57;1.77;;;3.80;99.90;;;;;;5073614;28;20105;-88
2023/03/15 01:57:56;;;;;;;11.32;1.25;;;3.70;99.90;;;;;;5062781;28;20048;-88
2023/03/15 02:00:42;;;;;;;6.45;1.10;;;3.70;99.90;;;;;;5072449;28;20122;-87
2023/03/15 02:03:35;;;;;;;10.98;1.38;;;3.60;99.90;;;;;;5039923;28;20504;-89
2023/03/15 02:06:22;;;;;;;8.20;1.38;;;3.50;99.90;;;;;;5053220;28;20487;-88
2023/03/15 02:09:13;;;;;;;9.90;2.47;;;3.50;99.90;;;;;;5070268;28;20044;-90
2023/03/15 02:12:00;;;;;;;7.72;1.27;;;3.50;99.90;;;;;;5089535;28;20044;-87
2023/03/15 02:14:50;;;;;;;11.80;1.75;;;3.40;99.90;;;;;;5052149;28;20112;-87
2023/03/15 02:17:46;;;;;;;11.50;2.05;;;3.40;99.90;;;;;;5061571;28;20052;-89
2023/03/15 02:20:47;;;;;;;12.25;1.58;;;3.40;99.90;;;;;;5055226;28;20567;-88
2023/03/15 02:23:33;;;;;;;13.75;1.67;;;3.40;99.90;;;;;;5076264;28;20048;-88
2023/03/15 02:26:22;;;;;;;12.23;2.00;;;3.40;99.90;;;;;;5038156;28;20048;-88
2023/03/15 02:29:08;;;;;;;10.43;2.13;;;3.40;99.90;;;;;;5040276;28;20056;-88
2023/03/15 02:31:56;;;;;;;12.07;2.10;;;3.40;99.90;;;;;;5067127;28;20052;-88
2023/03/15 02:34:42;;;;;;;8.50;2.03;;;3.30;99.90;;;;;;5062121;28;20454;-88
2023/03/15 02:37:28;;;;;;;13.43;1.95;;;3.30;99.90;;;;;;5058059;28;20503;-87
2023/03/15 02:40:18;;;;;;;8.48;1.55;;;3.30;99.90;;;;;;5074117;28;20108;-90
2023/03/15 02:43:15;;;;;;;9.02;2.17;;;3.30;99.90;;;;;;5082296;28;20059;-89
2023/03/15 02:46:02;;;;;;;11.43;1.50;;;3.30;99.90;;;;;;5067110;28;20060;-89
2023/03/15 02:48:52;;;;;;;12.18;3.22;;;3.30;99.90;;;;;;5075054;28;20041;-89
2023/03/15 02:51:38;;;;;;;6.90;1.23;;;3.40;99.90;;;;;;5087408;28;20049;-88
2023/03/15 02:54:24;;;;;;;11.23;1.35;;;3.50;99.90;;;;;;5089578;28;20048;-91
2023/03/15 02:57:14;;;;;;;3.65;0.70;;;3.40;99.90;;;;;;5043181;28;20057;-90
2023/03/15 03:00:05;;;;;;;5.07;0.82;;;3.40;99.90;;;;;;5042345;28;20091;-90
2023/03/15 03:02:52;;;;;;;5.70;0.80;;;3.20;99.90;;;;;;5073299;28;20099;-89
2023/03/15 03:05:38;;;;;;;3.92;1.10;;;3.20;99.90;;;;;;5055577;28;20052;-90
2023/03/15 03:08:24;;;;;;;6.30;1.70;;;3.10;99.90;;;;;;5074849;28;20055;-89
2023/03/15 03:11:10;;;;;;;7.00;1.08;;;3.00;99.90;;;;;;5074534;28;20062;-89
2023/03/15 03:13:56;;;;;;;7.50;1.20;;;3.00;99.90;;;;;;5077761;28;20082;-89
2023/03/15 03:16:42;;;;;;;10.82;1.30;;;2.90;99.90;;;;;;5069178;28;20109;-87
2023/03/15 03:19:28;;;;;;;7.82;1.20;;;2.90;99.90;;;;;;5083093;28;20132;-88
2023/03/15 03:22:14;;;;;;;9.63;2.03;;;2.80;99.90;;;;;;5076365;28;20048;-89
2023/03/15 03:25:01;;;;;;;5.40;0.80;;;2.80;99.90;;;;;;5073537;28;20114;-90
2023/03/15 03:27:47;;;;;;;8.38;0.95;;;2.80;99.90;;;;;;5061960;28;20053;-87
2023/03/15 03:30:35;;;;;;;6.82;1.45;;;2.80;99.90;;;;;;5077308;28;20385;-87
2023/03/15 03:33:21;;;;;;;8.90;1.05;;;2.80;99.90;;;;;;5060411;28;20131;-91
2023/03/15 03:36:08;;;;;;;6.20;0.95;;;2.90;99.90;;;;;;5057599;28;20053;-88
2023/03/15 03:38:55;;;;;;;7.70;1.20;;;2.80;99.90;;;;;;5087401;28;20052;-89
2023/03/15 03:41:41;;;;;;;6.32;0.95;;;2.90;99.90;;;;;;5081770;28;20048;-87
2023/03/15 03:44:28;;;;;;;5.28;1.33;;;2.90;99.90;;;;;;5091163;28;20049;-88
2023/03/15 03:47:14;;;;;;;11.90;2.40;;;2.90;99.90;;;;;;5082266;28;20056;-89
2023/03/15 03:50:00;;;;;;;10.20;1.08;;;2.90;99.90;;;;;;5059193;28;20049;-87
2023/03/15 03:52:46;;;;;;;4.45;0.80;;;2.90;99.90;;;;;;5075495;28;20062;-86
2023/03/15 03:55:32;;;;;;;4.82;1.02;;;2.90;99.90;;;;;;5062891;28;20059;-88
2023/03/15 03:58:19;;;;;;;4.75;1.00;;;2.90;99.90;;;;;;5082458;28;20064;-87
2023/03/15 04:01:05;;;;;;;8.35;1.92;;;2.80;99.90;;;;;;5056157;28;20059;-87
2023/03/15 04:03:51;;;;;;;11.30;2.83;;;2.80;99.90;;;;;;5074654;28;20127;-87
2023/03/15 04:06:37;;;;;;;6.68;1.35;;;2.80;99.90;;;;;;5042058;28;20055;-89
2023/03/15 04:09:24;;;;;;;14.25;3.10;;;2.80;99.90;;;;;;5074510;28;20044;-90
2023/03/15 04:12:10;;;;;;;6.63;1.10;;;2.80;99.90;;;;;;5059213;28;20052;-90
2023/03/15 04:14:56;;;;;;;6.97;1.70;;;2.80;99.90;;;;;;5074791;28;20059;-86
2023/03/15 04:17:42;;;;;;;5.75;1.23;;;2.90;99.90;;;;;;5067505;28;20051;-91
2023/03/15 04:20:28;;;;;;;3.65;0.98;;;2.90;99.90;;;;;;5079968;28;20053;-90
2023/03/15 04:23:17;;;;;;;5.25;1.55;;;2.90;99.90;;;;;;5060434;28;20054;-91
2023/03/15 04:26:07;;;;;;;9.13;1.42;;;2.90;99.90;;;;;;5052237;28;20087;-90
2023/03/15 04:28:54;;;;;;;6.20;0.93;;;2.90;99.90;;;;;;5074560;28;20044;-89
2023/03/15 04:31:41;;;;;;;11.30;2.63;;;2.80;99.90;;;;;;5061366;28;20048;-89
2023/03/15 04:34:29;;;;;;;5.13;1.40;;;2.70;99.90;;;;;;5063068;28;20062;-88
2023/03/15 04:37:15;;;;;;;16.05;2.35;;;2.80;99.90;;;;;;5077805;28;20048;-90
2023/03/15 04:40:01;;;;;;;13.80;2.45;;;2.90;99.90;;;;;;5053723;28;20511;-91
2023/03/15 04:42:47;;;;;;;9.27;2.33;;;3.00;99.90;;;;;;5053716;28;20053;-88
2023/03/15 04:45:33;;;;;;;8.98;1.60;;;3.20;99.90;;;;;;5071247;28;20040;-91
2023/03/15 04:48:19;;;;;;;13.38;2.38;;;3.30;99.90;;;;;;5073864;28;20045;-88
2023/03/15 04:51:05;;;;;;;9.82;2.13;;;3.40;99.90;;;;;;5064272;28;20084;-88
2023/03/15 04:53:51;;;;;;;10.75;2.22;;;3.40;99.90;;;;;;5078364;28;20052;-90
2023/03/15 04:56:37;;;;;;;9.00;1.95;;;3.40;99.90;;;;;;5079480;28;20048;-90
2023/03/15 04:59:23;;;;;;;11.07;2.38;;;3.40;99.90;;;;;;5074668;28;20079;-89
2023/03/15 05:02:09;;;;;;;10.38;1.77;;;3.50;99.90;;;;;;5063184;28;20079;-88
2023/03/15 05:04:55;;;;;;;11.23;1.50;;;3.50;99.90;;;;;;5069039;28;20475;-88
2023/03/15 05:07:42;;;;;;;9.48;1.77;;;3.50;99.90;;;;;;5079578;28;20066;-89
2023/03/15 05:10:29;;;;;;;11.20;1.52;;;3.60;99.90;;;;;;5070877;28;20052;-90
2023/03/15 05:13:17;;;;;;;7.13;1.55;;;3.60;99.90;;;;;;5077078;28;20048;-89
2023/03/15 05:16:04;;;;;;;11.50;2.97;;;3.60;99.90;;;;;;5076562;28;20044;-91
2023/03/15 05:18:50;;;;;;;9.88;1.88;;;3.60;99.90;;;;;;5059973;28;20063;-91
2023/03/15 05:21:36;;;;;;;13.40;1.80;;;3.60;99.90;;;;;;5091866;28;20510;-89
2023/03/15 05:24:22;;;;;;;5.85;1.42;;;3.50;99.90;;;;;;5095482;28;20108;-88
2023/03/15 05:27:09;;;;;;;13.55;1.52;;;3.50;99.90;;;;;;5090683;28;20390;-89
2023/03/15 05:29:55;;;;;;;12.57;2.30;;;3.50;99.90;;;;;;5092120;28;20389;-90
2023/03/15 05:32:43;;;;;;;16.27;3.38;;;3.50;99.90;;;;;;5081061;28;20052;-87
2023/03/15 05:35:30;;;;;;;12.20;1.33;;;3.40;99.90;;;;;;5094884;28;20052;-89
2023/03/15 05:38:16;;;;;;;8.20;1.67;;;3.50;99.90;;;;;;5076498;28;20046;-90
2023/03/15 05:41:03;;;;;;;7.65;1.33;;;3.50;99.90;;;;;;5078924;28;20133;-88
2023/03/15 05:43:50;;;;;;;13.50;2.00;;;3.50;99.90;;;;;;5074843;28;20056;-90
2023/03/15 05:46:36;;;;;;;14.88;2.45;;;3.50;99.90;;;;;;5054885;28;20048;-89
2023/03/15 05:49:22;;;;;;;12.38;2.30;;;3.50;99.90;;;;;;5066311;28;20139;-91
2023/03/15 05:52:08;;;;;;;12.50;1.95;;;3.50;99.90;;;;;;5074626;28;20056;-90
2023/03/15 05:54:54;;;;;;;11.20;1.50;;;3.50;99.90;;;;;;5069411;28;20086;-90
2023/03/15 05:57:40;;;;;;;17.05;3.47;;;3.60;99.90;;;;;;5085302;28;20052;-91
2023/03/15 06:00:27;;;;;;;10.52;1.98;;;3.50;99.90;;;;;;5075477;28;20059;-91
2023/03/15 06:03:13;;;;;;;12.38;1.77;;;3.60;99.90;;;;;;5068999;28;20135;-89
2023/03/15 06:05:59;;;;;;;11.23;2.03;;;3.60;99.90;;;;;;5072258;28;20779;-90
2023/03/15 06:08:45;;;;;;;8.43;1.80;;;3.50;99.90;;;;;;5071949;28;20131;-88
2023/03/15 06:11:32;;;;;;;17.55;2.28;;;3.60;99.90;;;;;;5070754;28;20140;-88
2023/03/15 06:14:18;;;;;;;8.63;2.10;;;3.60;99.90;;;;;;5054770;28;20143;-88
2023/03/15 06:17:04;;;;;;;20.83;1.88;;;3.70;99.90;;;;;;5076921;28;20040;-90
2023/03/15 06:19:50;;;;;;;12.38;1.55;;;3.60;99.90;;;;;;5068786;28;20052;-90
2023/03/15 06:22:37;;;;;;;11.43;1.40;;;3.70;99.90;;;;;;5068976;28;20056;-89
2023/03/15 06:25:24;;;;;;;14.95;2.97;;;3.70;99.90;;;;;;5071364;28;20527;-89
2023/03/15 06:28:11;;;;;;;20.08;3.88;;;3.70;99.90;;;;;;5072671;28;20060;-90
2023/03/15 06:30:57;;;;;;;8.32;1.70;;;3.70;99.90;;;;;;5075369;28;20489;-90
2023/03/15 06:33:43;;;;;;;12.85;2.15;;;3.70;99.90;;;;;;5076419;28;20048;-89
2023/03/15 06:36:30;;;;;;;7.95;2.00;;;3.70;99.90;;;;;;5079569;28;20059;-86
2023/03/15 06:39:17;;;;;;;16.15;2.60;;;3.70;99.90;;;;;;5056939;28;20059;-89
2023/03/15 06:42:03;;;;;;;10.82;2.55;;;3.70;99.90;;;;;;5072554;28;20052;-89
2023/03/15 06:44:50;;;;;;;12.40;1.52;;;3.70;99.90;;;;;;5080604;28;20056;-88
2023/03/15 06:47:36;;;;;;;11.43;2.28;;;3.70;99.90;;;;;;5070870;28;20412;-90
2023/03/15 06:50:22;;;;;;;12.65;2.35;;;3.70;99.90;;;;;;5070789;28;20040;-87
2023/03/15 06:53:08;;;;;;;18.58;2.25;;;3.70;99.90;;;;;;5079858;28;20135;-89
2023/03/15 06:55:54;;;;;;;13.10;2.42;;;3.70;99.90;;;;;;5070389;28;20056;-89
2023/03/15 06:58:41;;;;;;;14.23;2.33;;;3.70;99.90;;;;;;5070353;28;20049;-88
2023/03/15 07:01:27;;;;;;;14.85;2.10;;;3.80;99.90;;;;;;5069382;28;20055;-88
2023/03/15 07:04:13;;;;;;;10.55;2.38;;;3.90;99.90;;;;;;5070256;28;20094;-89
2023/03/15 07:07:00;;;;;;;20.33;1.95;;;4.00;99.90;;;;;;5070002;28;20049;-88
2023/03/15 07:09:46;;;;;;;9.65;2.08;;;4.20;99.90;;;;;;5071394;28;20056;-88
2023/03/15 07:12:32;;;;;;;11.32;2.15;;;4.30;99.90;;;;;;5082717;28;20045;-89
2023/03/15 07:15:18;;;;;;;10.82;1.95;;;4.40;99.90;;;;;;5070277;28;20050;-89
2023/03/15 07:18:04;;;;;;;13.02;2.00;;;4.50;99.90;;;;;;5068841;28;20052;-89
2023/03/15 07:20:59;;;;;;;9.15;1.63;;;4.60;99.90;;;;;;5073609;28;20060;-88
2023/03/15 07:23:45;;;;;;;13.63;1.90;;;4.70;99.90;;;;;;5075161;28;20139;-88
2023/03/15 07:26:31;;;;;;;10.13;1.98;;;4.80;99.90;;;;;;5074341;28;20040;-86
2023/03/15 07:29:17;;;;;;;11.82;1.70;;;4.90;99.90;;;;;;5079271;28;20044;-89
2023/03/15 07:32:04;;;;;;;12.20;1.65;;;5.00;99.90;;;;;;5069718;28;20048;-87
2023/03/15 07:34:50;;;;;;;9.00;1.70;;;5.00;99.90;;;;;;5088725;28;20082;-88
2023/03/15 07:37:36;;;;;;;15.48;1.73;;;5.20;99.90;;;;;;5080330;28;20052;-87
2023/03/15 07:40:22;;;;;;;4.07;1.02;;;5.10;99.90;;;;;;5077497;28;20049;-87
2023/03/15 07:43:08;;;;;;;15.57;2.47;;;5.20;99.90;;;;;;5078077;28;20049;-88
2023/03/15 07:45:54;;;;;;;9.82;1.98;;;5.20;99.90;;;;;;5083514;28;20056;-89
2023/03/15 07:48:40;;;;;;;6.97;1.63;;;5.30;99.90;;;;;;5075064;28;20095;-90
2023/03/15 07:51:27;;;;;;;9.95;1.85;;;5.30;99.90;;;;;;5075914;28;20087;-89
2023/03/15 07:54:13;;;;;;;16.92;1.98;;;5.30;99.90;;;;;;5082334;28;20557;-88
2023/03/15 07:56:59;;;;;;;18.05;2.17;;;5.40;99.90;;;;;;5072301;28;20408;-91
2023/03/15 07:59:45;;;;;;;12.93;2.15;;;5.50;99.90;;;;;;5071722;28;20578;-90
2023/03/15 08:02:31;;;;;;;8.48;1.33;;;5.50;99.90;;;;;;5072033;28;20416;-89
2023/03/15 08:05:18;;;;;;;6.82;1.23;;;5.50;99.90;;;;;;5070763;28;20052;-89
2023/03/15 08:08:04;;;;;;;8.75;1.27;;;5.60;99.90;;;;;;5075874;28;20048;-87
2023/03/15 08:10:50;;;;;;;7.10;1.73;;;5.60;99.90;;;;;;5085884;28;20049;-88
2023/03/15 08:13:37;;;;;;;7.45;1.90;;;5.60;99.90;;;;;;5083235;28;20112;-90
2023/03/15 08:16:23;;;;;;;10.73;2.00;;;5.70;99.90;;;;;;5076612;28;20048;-87
2023/03/15 08:19:09;;;;;;;12.45;1.75;;;5.70;99.90;;;;;;5073667;28;20051;-88
2023/03/15 08:21:55;;;;;;;10.60;1.27;;;5.80;99.90;;;;;;5077786;28;20110;-88
2023/03/15 08:24:41;;;;;;;12.93;1.45;;;5.80;99.90;;;;;;5076149;28;20501;-89
2023/03/15 08:27:27;;;;;;;19.30;2.03;;;5.80;99.90;;;;;;5080597;28;20448;-89
2023/03/15 08:30:15;;;;;;;10.98;2.08;;;5.90;99.90;;;;;;5064784;28;20515;-90
2023/03/15 08:33:02;;;;;;;12.52;1.88;;;6.00;99.90;;;;;;5072245;28;20518;-90
2023/03/15 08:35:55;;;;;;;15.95;1.90;;;6.00;99.90;;;;;;5073267;28;20056;-88
2023/03/15 08:38:41;;;;;;;10.00;1.60;;;6.10;99.90;;;;;;5086756;28;20052;-89
2023/03/15 08:41:27;;;;;;;8.95;1.40;;;6.20;99.90;;;;;;5080055;28;20136;-90
2023/03/15 08:44:13;;;;;;;10.65;1.52;;;6.30;99.90;;;;;;5071935;28;20051;-90
2023/03/15 08:46:59;;;;;;;13.27;2.28;;;6.30;99.90;;;;;;5072236;28;20489;-89
2023/03/15 08:49:45;;;;;;;8.90;1.55;;;6.40;99.90;;;;;;5069686;28;20037;-91
2023/03/15 08:52:31;;;;;;;19.70;2.40;;;6.40;99.90;;;;;;5070916;28;20582;-90
2023/03/15 08:55:18;;;;;;;10.38;1.67;;;6.60;99.90;;;;;;5054912;28;20056;-89
2023/03/15 08:58:04;;;;;;;11.15;2.25;;;6.70;99.90;;;;;;5098360;28;20048;-90
2023/03/15 09:00:50;;;;;;;12.63;2.40;;;6.80;99.90;;;;;;5080019;28;20040;-91
2023/03/15 09:03:37;;;;;;;8.88;1.75;;;6.90;99.90;;;;;;5097305;28;20048;-90
2023/03/15 09:06:23;;;;;;;9.15;2.30;;;6.90;99.90;;;;;;5088613;28;20044;-90
2023/03/15 09:09:10;;;;;;;8.77;1.60;;;7.00;99.90;;;;;;5073402;28;20048;-89
2023/03/15 09:11:56;;;;;;;11.32;2.08;;;7.10;99.90;;;;;;5086593;28;20094;-90
2023/03/15 09:14:43;;;;;;;9.63;1.58;;;7.20;99.90;;;;;;5064092;28;20063;-89
2023/03/15 09:17:29;;;;;;;11.68;2.75;;;7.30;99.90;;;;;;5079537;28;20044;-87
2023/03/15 09:20:17;;;;;;;7.60;1.80;;;7.30;99.90;;;;;;5096620;28;20134;-89
2023/03/15 09:23:03;;;;;;;11.93;1.67;;;7.30;99.90;;;;;;5095662;28;20492;-91
2023/03/15 09:25:49;;;;;;;8.52;1.83;;;7.40;99.90;;;;;;5082734;28;20389;-90
2023/03/15 09:28:35;;;;;;;11.18;1.85;;;7.40;99.90;;;;;;5100759;28;20086;-89
2023/03/15 09:31:23;;;;;;;11.77;2.45;;;7.60;99.90;;;;;;5107424;28;20079;-90
2023/03/15 09:34:09;;;;;;;11.60;2.92;;;7.60;99.90;;;;;;5111296;28;20048;-88
2023/03/15 09:36:55;;;;;;;7.95;1.55;;;7.80;99.90;;;;;;5095319;28;20087;-88
2023/03/15 09:39:42;;;;;;;7.22;1.42;;;7.90;99.90;;;;;;5086991;28;20458;-90
2023/03/15 09:42:33;;;;;;;7.47;2.10;;;8.00;99.90;;;;;;5078243;28;20048;-91
2023/03/15 09:46:01;;;;;;;10.10;1.90;;;8.00;99.90;;;;;;5092593;28;20451;-92
2023/03/15 09:48:57;;;;;;;6.85;2.15;;;7.80;99.90;;;;;;5075411;28;20051;-91
2023/03/15 09:52:18;;;;;;;10.38;1.70;;;7.80;99.80;;;;;;5081395;28;20044;-92
2023/03/15 09:55:10;;;;;;;8.38;1.48;;;7.60;99.90;;;;;;5048367;28;20044;-88
2023/03/15 09:58:01;;;;;;;16.48;3.05;;;7.70;99.90;;;;;;5092907;28;20484;-90
2023/03/15 10:00:51;;;;;;;11.23;2.70;;;7.90;99.90;;;;;;5075510;28;20044;-89
2023/03/15 10:03:51;;;;;;;6.75;1.60;;;8.10;99.70;;;;;;5070913;28;20108;-89
2023/03/15 10:06:44;;;;;;;12.35;2.03;;;8.40;99.80;;;;;;5061885;28;20052;-91
2023/03/15 10:09:32;;;;;;;8.48;1.40;;;8.60;99.90;;;;;;5077069;28;20136;-90
2023/03/15 10:12:30;;;;;;;9.75;1.70;;;8.60;99.70;;;;;;5086185;28;20083;-90
2023/03/15 10:15:38;;;;;;;7.82;1.30;;;8.70;97.90;;;;;;5076982;28;20120;-90
2023/03/15 10:18:30;;;;;;;7.82;1.83;;;8.60;97.10;;;;;;5055243;28;20049;-91
2023/03/15 10:21:26;;;;;;;10.85;1.60;;;8.70;97.30;;;;;;5069423;28;20048;-88
2023/03/15 10:24:19;;;;;;;8.20;1.05;;;8.60;97.30;;;;;;5071995;28;20520;-91
2023/03/15 10:27:14;;;;;;;8.40;2.85;;;8.50;96.70;;;;;;5076338;28;20049;-92
2023/03/15 10:30:11;;;;;;;10.98;2.03;;;8.80;96.90;;;;;;5059284;28;20839;-89
2023/03/15 10:33:19;;;;;;;10.07;1.30;;;8.70;97.00;;;;;;5090614;28;20052;-90
2023/03/15 10:36:20;;;;;;;7.82;1.77;;;8.90;96.60;;;;;;5057974;28;20055;-91
2023/03/15 10:39:10;;;;;;;8.75;1.40;;;9.10;96.80;;;;;;5088486;28;20559;-91
2023/03/15 10:41:56;;;;;;;8.38;1.77;;;9.20;96.20;;;;;;5089061;28;20040;-91
2023/03/15 10:44:42;;;;;;;9.48;1.52;;;9.50;96.20;;;;;;5074347;28;20048;-90
2023/03/15 10:47:28;;;;;;;10.25;1.80;;;9.60;95.60;;;;;;5061278;28;20060;-89
2023/03/15 10:50:27;;;;;;;7.63;1.30;;;9.70;95.00;;;;;;5085125;28;20056;-88
2023/03/15 10:53:20;;;;;;;8.52;1.52;;;9.50;93.50;;;;;;5076302;28;20072;-89
2023/03/15 10:56:19;;;;;;;7.93;1.40;;;9.60;93.20;;;;;;5086121;28;20056;-87
2023/03/15 10:59:17;;;;;;;7.78;1.33;;;9.70;92.50;;;;;;5069402;28;20104;-88
2023/03/15 11:02:12;;;;;;;7.50;2.05;;;9.90;93.50;;;;;;5087470;28;20113;-89
2023/03/15 11:05:13;;;;;;;5.13;1.30;;;10.00;93.40;;;;;;5080397;28;20047;-90
2023/03/15 11:08:00;;;;;;;7.63;1.48;;;9.70;93.40;;;;;;5080313;28;20068;-89
2023/03/15 11:10:58;;;;;;;7.28;1.50;;;10.00;93.90;;;;;;5081896;28;20052;-87
2023/03/15 11:13:58;;;;;;;12.45;2.95;;;9.90;92.60;;;;;;5060353;28;20098;-90
2023/03/15 11:16:51;;;;;;;6.85;1.50;;;9.70;92.70;;;;;;5059382;28;20060;-91
2023/03/15 11:19:41;;;;;;;11.27;2.33;;;9.70;93.10;;;;;;5081566;28;20090;-89
2023/03/15 11:22:27;;;;;;;9.52;1.80;;;9.70;93.50;;;;;;5083625;28;20063;-91
2023/03/15 11:25:14;;;;;;;10.25;2.35;;;9.60;93.60;;;;;;5066904;28;20052;-90
2023/03/15 11:28:00;;;;;;;8.45;2.10;;;9.40;94.20;;;;;;5073706;28;20060;-91
2023/03/15 11:30:48;;;;;;;8.82;4.22;;;9.40;94.40;;;;;;5059616;28;20048;-90
2023/03/15 11:33:58;;;;;;;9.73;3.28;;;9.40;94.80;;;;;;5074619;28;20048;-89
2023/03/15 11:36:49;;;;;;;6.25;1.50;;;9.90;94.40;;;;;;5075681;28;20131;-90
2023/03/15 11:39:50;;;;;;;9.25;1.98;;;10.30;94.20;;;;;;5085231;28;20056;-91
2023/03/15 11:42:49;;;;;;;7.15;1.15;;;10.60;92.90;;;;;;5075577;28;20603;-89
2023/03/15 11:45:43;;;;;;;7.28;1.90;;;10.90;91.60;;;;;;5064310;28;20111;-87
2023/03/15 11:48:50;;;;;;;6.32;1.20;;;10.90;91.20;;;;;;5093467;28;20052;-87
2023/03/15 11:51:37;;;;;;;5.57;1.48;;;11.20;91.90;;;;;;5078908;28;20510;-87
2023/03/15 11:54:27;;;;;;;6.35;1.25;;;11.60;91.70;;;;;;5063396;28;20488;-87
2023/03/15 11:57:39;;;;;;;8.88;1.42;;;11.90;91.00;;;;;;5077586;28;20098;-88
2023/03/15 12:00:34;;;;;;;8.65;1.73;;;11.80;88.80;;;;;;5083471;28;20036;-87
2023/03/15 12:03:27;;;;;;;8.68;1.67;;;12.10;90.10;;;;;;5106728;28;20071;-87
2023/03/15 12:06:17;;;;;;;11.45;1.23;;;11.80;88.50;;;;;;5073756;28;20076;-87
2023/03/15 12:09:32;;;;;;;7.68;1.38;;;12.10;86.70;;;;;;5061438;28;20108;-89
2023/03/15 12:12:24;;;;;;;12.90;1.55;;;12.00;85.60;;;;;;5073302;28;20056;-90
2023/03/15 12:15:13;;;;;;;7.40;1.33;;;12.20;83.70;;;;;;5073088;28;20092;-90
2023/03/15 12:18:05;;;;;;;9.82;1.45;;;12.60;83.80;;;;;;5062136;28;20044;-90
2023/03/15 12:21:11;;;;;;;10.50;1.95;;;12.60;82.20;;;;;;5064788;28;20515;-91
2023/03/15 12:24:07;;;;;;;11.43;1.30;;;13.20;81.30;;;;;;5084966;28;20054;-91
2023/03/15 12:27:05;;;;;;;11.85;1.90;;;13.10;78.10;;;;;;5075685;28;20139;-88
2023/03/15 12:30:00;;;;;;;6.82;1.30;;;13.70;78.40;;;;;;5074501;28;20048;-87
2023/03/15 12:32:50;;;;;;;4.97;0.90;;;13.90;75.70;;;;;;5091807;28;20143;-87
2023/03/15 12:35:40;;;;;;;5.70;1.10;;;14.20;72.60;;;;;;5065406;28;20048;-88
2023/03/15 12:38:35;;;;;;;5.85;1.23;;;14.70;71.10;;;;;;5074356;28;20044;-88
2023/03/15 12:41:41;;;;;;;8.63;1.92;;;15.00;68.80;;;;;;5092185;28;20048;-89
2023/03/15 12:44:39;;;;;;;9.77;1.35;;;15.40;64.70;;;;;;5077132;28;20048;-88
2023/03/15 12:47:42;;;;;;;4.28;1.15;;;16.00;63.50;;;;;;5084909;28;20139;-88
2023/03/15 12:50:51;;;;;;;7.80;1.38;;;16.20;61.30;;;;;;5090822;28;20055;-88
2023/03/15 12:53:42;;;;;;;6.78;1.13;;;16.60;59.70;;;;;;5086536;28;20127;-87
2023/03/15 12:56:40;;;;;;;6.07;1.15;;;16.00;58.40;;;;;;5090731;28;20044;-88
2023/03/15 12:59:32;;;;;;;7.68;1.20;;;16.10;58.90;;;;;;5073614;28;20060;-88
2023/03/15 13:02:30;;;;;;;6.95;1.27;;;16.10;59.20;;;;;;5072489;28;20472;-89
2023/03/15 13:05:19;;;;;;;9.93;1.83;;;16.70;59.20;;;;;;5092167;28;20043;-88
2023/03/15 13:08:23;;;;;;;8.05;1.25;;;16.70;58.00;;;;;;5083507;28;20052;-89
2023/03/15 13:11:12;;;;;;;6.03;1.25;;;16.10;57.50;;;;;;5089495;28;20075;-88
2023/03/15 13:14:25;;;;;;;6.93;1.08;;;16.20;58.70;;;;;;5075752;28;20055;-89
2023/03/15 13:17:47;;;;;;;11.43;2.22;;;15.60;60.20;;;;;;5055506;28;20073;-89
2023/03/15 13:20:39;;;;;;;8.20;1.50;;;14.60;57.80;;;;;;5052124;28;20043;-88
2023/03/15 13:23:28;;;;;;;9.73;1.60;;;14.80;60.30;;;;;;5074428;28;20056;-88
2023/03/15 13:26:26;;;;;;;5.75;1.10;;;15.30;60.80;;;;;;5077911;28;20085;-88
2023/03/15 13:29:16;;;;;;;7.45;2.28;;;15.60;58.50;;;;;;5075816;28;20190;-88
2023/03/15 13:32:13;;;;;;;4.97;0.90;;;15.70;58.30;;;;;;5077421;28;20090;-88
2023/03/15 13:34:59;;;;;;;16.20;1.50;;;15.30;59.10;;;;;;5085867;28;20048;-88
2023/03/15 13:37:45;;;;;;;5.28;1.27;;;15.50;59.40;;;;;;5069320;28;20055;-88
2023/03/15 13:40:31;;;;;;;7.97;2.30;;;15.80;58.00;;;;;;5084305;28;20044;-87
2023/03/15 13:43:17;;;;;;;8.82;1.17;;;15.80;58.30;;;;;;5103931;28;20052;-88
2023/03/15 13:46:05;;;;;;;5.45;1.75;;;15.10;59.20;;;;;;5103538;28;20059;-88
2023/03/15 13:48:52;;;;;;;8.77;1.50;;;15.20;59.30;;;;;;5064976;28;20051;-88
2023/03/15 13:51:39;;;;;;;7.88;1.10;;;14.80;58.20;;;;;;5060331;28;20044;-88
2023/03/15 13:54:29;;;;;;;6.55;1.42;;;15.80;59.90;;;;;;5076246;28;20459;-88
2023/03/15 13:57:18;;;;;;;9.73;1.45;;;16.30;58.60;;;;;;5074330;28;20147;-88
2023/03/15 14:00:11;;;;;;;6.93;1.40;;;17.10;58.00;;;;;;5080503;28;20048;-88
2023/03/15 14:03:01;;;;;;;6.18;1.92;;;17.40;57.50;;;;;;5074135;28;20084;-89
2023/03/15 14:05:51;;;;;;;8.88;1.48;;;17.70;55.20;;;;;;5094667;28;20044;-87
2023/03/15 14:08:39;;;;;;;11.57;1.48;;;18.00;55.70;;;;;;5081651;28;20052;-88
2023/03/15 14:11:25;;;;;;;7.13;1.30;;;18.30;56.60;;;;;;5075092;28;20055;-88
2023/03/15 14:14:23;;;;;;;9.05;1.40;;;18.40;55.60;;;;;;5075352;28;20050;-88
2023/03/15 14:17:28;;;;;;;5.50;1.50;;;18.60;54.90;;;;;;5071522;28;20097;-89
2023/03/15 14:20:15;;;;;;;6.72;1.52;;;18.70;55.00;;;;;;5075295;28;20458;-87
2023/03/15 14:23:03;;;;;;;6.07;1.20;;;18.00;56.00;;;;;;5076376;28;20044;-90
2023/03/15 14:25:52;;;;;;;9.95;1.63;;;18.70;55.70;;;;;;5070866;28;20044;-89
2023/03/15 14:28:40;;;;;;;5.32;0.88;;;18.40;54.10;;;;;;5075692;28;20040;-88
2023/03/15 14:31:33;;;;;;;5.30;1.10;;;19.00;52.80;;;;;;5069316;28;20056;-88
2023/03/15 14:34:36;;;;;;;7.97;1.67;;;18.90;51.40;;;;;;5067504;28;20081;-89
2023/03/15 14:37:42;;;;;;;5.82;1.00;;;18.00;50.90;;;;;;5085860;28;20059;-91
2023/03/15 14:40:34;;;;;;;7.78;1.42;;;18.20;50.30;;;;;;5064089;28;20051;-88
2023/03/15 14:43:23;;;;;;;4.78;0.90;;;18.70;51.30;;;;;;5075732;28;20044;-88
2023/03/15 14:46:11;;;;;;;5.65;1.08;;;17.80;50.30;;;;;;5074355;28;20044;-89
2023/03/15 14:48:57;;;;;;;6.38;1.08;;;16.30;50.60;;;;;;5088648;28;20125;-86